createdAt,value
2023-03-22T00:18:04.822Z,100768.06
2023-03-22T00:28:10.802Z,100764.72
2023-03-22T00:38:45.678Z,100737.84
2023-03-22T00:48:45.987Z,100733.34
2023-03-22T01:09:55.473Z,100707.28
2023-03-22T01:30:01.931Z,100654.91
2023-03-22T01:40:09.917Z,100636.53
2023-03-22T02:00:42.338Z,100601.94
2023-03-22T02:10:51.722Z,100585.00
2023-03-22T02:20:54.752Z,100585.81
2023-03-22T02:31:06.547Z,100575.22
2023-03-22T02:41:14.810Z,100570.50
2023-03-22T02:51:22.802Z,100565.91
2023-03-22T03:01:24.896Z,100545.06
2023-03-22T03:12:24.823Z,100551.00
2023-03-22T03:32:21.798Z,100529.91
2023-03-22T03:42:23.161Z,100523.56
2023-03-22T03:52:30.872Z,100527.94
2023-03-22T04:02:33.926Z,100530.44
2023-03-22T04:12:36.861Z,100525.06
2023-03-22T04:43:13.737Z,100503.19
2023-03-22T04:53:22.600Z,100498.47
2023-03-22T05:03:26.481Z,100503.72
2023-03-22T05:13:31.886Z,100493.91
2023-03-22T05:23:34.311Z,100483.41
2023-03-22T05:33:35.664Z,100493.75
2023-03-22T06:04:11.924Z,100488.84
2023-03-22T06:14:29.592Z,100484.03
2023-03-22T06:24:31.193Z,100485.69
2023-03-22T06:34:32.470Z,100492.13
2023-03-22T06:44:46.870Z,100486.03
2023-03-22T06:54:48.438Z,100481.63
2023-03-22T07:04:49.753Z,100497.41
2023-03-22T07:14:53.843Z,100481.63
2023-03-22T07:25:05.366Z,100477.34
2023-03-22T07:35:12.834Z,100495.56
2023-03-22T07:45:20.862Z,100504.56
2023-03-22T07:55:28.874Z,100504.09
2023-03-22T08:05:36.832Z,100502.38
2023-03-22T08:15:44.861Z,100505.00
2023-03-22T08:25:52.885Z,100508.66
2023-03-22T08:36:00.909Z,100491.06
2023-03-22T08:46:09.001Z,100479.66
2023-03-22T08:56:16.834Z,100484.03
2023-03-22T09:06:30.900Z,100475.41
2023-03-22T11:11:31.946Z,100484.88
2023-03-22T14:19:42.963Z,100416.56
